Time;durP1;ratioP1;P1;durP2;ratioP2;P2;SDS_P1;SDS_P2;PMS_P1;PMS_P2;Temp;Humidity;BMP_temperature;BMP_pressure;BME280_temperature;BME280_humidity;BME280_pressure;Samples;Min_cycle;Max_cycle;Signal;HPM_P1;HPM_P2
2023/08/15 00:02:23;;;;;;;;;;;24.20;99.90;;;;;;5132456;28;20380;-72
2023/08/15 00:04:49;;;;;;;;;;;24.20;99.90;;;;;;5133914;28;20375;-72
2023/08/15 00:07:15;;;;;;;;;;;24.20;99.90;;;;;;5133753;27;19904;-72
2023/08/15 00:09:41;;;;;;;;;;;24.20;99.90;;;;;;5133981;27;19956;-74
2023/08/15 00:12:07;;;;;;;;;;;24.20;99.90;;;;;;5133650;28;19904;-73
2023/08/15 00:14:34;;;;;;;;;;;24.10;99.90;;;;;;5133682;27;19907;-72
2023/08/15 00:16:59;;;;;;;;;;;24.00;99.90;;;;;;5133588;27;19904;-72
2023/08/15 00:19:25;;;;;;;;;;;24.10;99.90;;;;;;5134736;27;19904;-73
2023/08/15 00:21:51;;;;;;;;;;;24.00;99.90;;;;;;5138072;27;19930;-72
2023/08/15 00:24:18;;;;;;;;;;;24.10;99.90;;;;;;5137540;27;19904;-72
2023/08/15 00:26:43;;;;;;;;;;;24.10;99.90;;;;;;5137569;27;20275;-72
2023/08/15 00:29:09;;;;;;;;;;;24.10;99.90;;;;;;5137605;27;19911;-72
2023/08/15 00:31:35;;;;;;;;;;;24.00;99.90;;;;;;5137482;27;19903;-72
2023/08/15 00:34:01;;;;;;;;;;;24.00;99.90;;;;;;5137051;27;19915;-70
2023/08/15 00:36:27;;;;;;;;;;;24.00;99.90;;;;;;5137350;27;20374;-71
2023/08/15 00:38:52;;;;;;;;;;;24.00;99.90;;;;;;5137176;27;20025;-71
2023/08/15 00:41:18;;;;;;;;;;;23.90;99.90;;;;;;5137260;27;20001;-71
2023/08/15 00:43:44;;;;;;;;;;;24.00;99.90;;;;;;5137304;27;19903;-71
2023/08/15 00:46:10;;;;;;;;;;;23.80;99.90;;;;;;5137072;27;19919;-70
2023/08/15 00:48:36;;;;;;;;;;;23.90;99.90;;;;;;5137098;27;19903;-70
2023/08/15 00:51:02;;;;;;;;;;;23.90;99.90;;;;;;5137576;27;19910;-70
2023/08/15 00:53:29;;;;;;;;;;;23.80;99.90;;;;;;5136285;27;19903;-70
2023/08/15 00:55:55;;;;;;;;;;;23.80;99.90;;;;;;5136976;27;19946;-70
2023/08/15 00:58:22;;;;;;;;;;;23.80;99.90;;;;;;5136984;27;19908;-70
2023/08/15 01:00:49;;;;;;;;;;;23.80;99.90;;;;;;5136799;27;19948;-69
2023/08/15 01:03:15;;;;;;;;;;;23.70;99.90;;;;;;5137068;27;19903;-70
2023/08/15 01:05:41;;;;;;;;;;;23.70;99.90;;;;;;5136625;27;19922;-70
2023/08/15 01:08:07;;;;;;;;;;;23.60;99.90;;;;;;5136806;27;19911;-70
2023/08/15 01:10:33;;;;;;;;;;;23.70;99.90;;;;;;5137192;27;19907;-71
2023/08/15 01:13:17;;;;;;;;;;;23.70;99.90;;;;;;5136938;27;19903;-71
2023/08/15 01:15:46;;;;;;;;;;;23.70;99.90;;;;;;5135055;27;19903;-71
2023/08/15 01:18:15;;;;;;;;;;;23.50;99.90;;;;;;5136541;27;19994;-70
2023/08/15 01:20:42;;;;;;;;;;;23.40;99.90;;;;;;5136799;27;20052;-70
2023/08/15 01:23:08;;;;;;;;;;;23.40;99.90;;;;;;5136599;27;19971;-72
2023/08/15 01:25:40;;;;;;;;;;;23.40;99.90;;;;;;5136554;27;20351;-71
2023/08/15 01:28:09;;;;;;;;;;;23.50;99.90;;;;;;5137138;27;20070;-71
2023/08/15 01:30:35;;;;;;;;;;;23.50;99.90;;;;;;5135096;27;19903;-72
2023/08/15 01:33:11;;;;;;;;;;;23.50;99.90;;;;;;5136284;27;19909;-71
2023/08/15 01:35:38;;;;;;;;;;;23.50;99.90;;;;;;5136481;27;20254;-71
2023/08/15 01:38:24;;;;;;;;;;;23.50;99.90;;;;;;5136537;27;19907;-72
2023/08/15 01:40:52;;;;;;;;;;;23.40;99.90;;;;;;5135628;27;19907;-71
2023/08/15 01:43:18;;;;;;;;;;;23.40;99.90;;;;;;5136641;27;19910;-71
2023/08/15 01:45:44;;;;;;;;;;;23.40;99.90;;;;;;5135765;27;19918;-71
2023/08/15 01:48:10;;;;;;;;;;;23.30;99.90;;;;;;5136477;27;19994;-72
2023/08/15 01:50:36;;;;;;;;;;;23.30;99.90;;;;;;5136060;27;19919;-72
2023/08/15 01:53:02;;;;;;;;;;;23.30;99.90;;;;;;5134515;27;19903;-71
2023/08/15 01:55:28;;;;;;;;;;;23.30;99.90;;;;;;5134581;27;19903;-72
2023/08/15 01:57:53;;;;;;;;;;;23.20;99.90;;;;;;5136088;27;19960;-71
2023/08/15 02:00:19;;;;;;;;;;;23.10;99.90;;;;;;5135839;27;19904;-71
2023/08/15 02:02:45;;;;;;;;;;;23.20;99.90;;;;;;5136263;27;20273;-72
2023/08/15 02:05:13;;;;;;;;;;;23.20;99.90;;;;;;5135690;27;19911;-72
2023/08/15 02:07:39;;;;;;;;;;;23.30;99.90;;;;;;5136144;27;19903;-72
2023/08/15 02:10:05;;;;;;;;;;;23.30;99.90;;;;;;5135821;27;19977;-71
2023/08/15 02:12:31;;;;;;;;;;;23.40;99.90;;;;;;5134266;27;20389;-72
2023/08/15 02:14:56;;;;;;;;;;;23.40;99.90;;;;;;5135485;27;19904;-71
2023/08/15 02:17:22;;;;;;;;;;;23.40;99.90;;;;;;5135285;27;19904;-71
2023/08/15 02:19:48;;;;;;;;;;;23.40;99.90;;;;;;5135443;27;19925;-72
2023/08/15 02:22:14;;;;;;;;;;;23.40;99.90;;;;;;5135244;27;19956;-71
2023/08/15 02:24:39;;;;;;;;;;;23.40;99.90;;;;;;5135487;27;19907;-71
2023/08/15 02:27:06;;;;;;;;;;;23.40;99.90;;;;;;5135295;27;20327;-71
2023/08/15 02:29:31;;;;;;;;;;;23.30;99.90;;;;;;5135477;27;19904;-72
2023/08/15 02:31:57;;;;;;;;;;;23.40;99.90;;;;;;5133629;27;19956;-72
2023/08/15 02:34:23;;;;;;;;;;;23.30;99.90;;;;;;5135150;27;19907;-72
2023/08/15 02:36:49;;;;;;;;;;;23.30;99.90;;;;;;5135100;27;19910;-71
2023/08/15 02:39:16;;;;;;;;;;;23.30;99.90;;;;;;5134890;27;19915;-71
2023/08/15 02:41:42;;;;;;;;;;;23.30;99.90;;;;;;5133411;27;19903;-71
2023/08/15 02:44:08;;;;;;;;;;;23.30;99.90;;;;;;5134793;27;20002;-71
2023/08/15 02:46:34;;;;;;;;;;;23.20;99.90;;;;;;5134827;27;19948;-72
2023/08/15 02:49:00;;;;;;;;;;;23.10;99.90;;;;;;5134830;27;19911;-71
2023/08/15 02:51:25;;;;;;;;;;;23.20;99.90;;;;;;5135226;27;19955;-71
2023/08/15 02:53:51;;;;;;;;;;;23.10;99.90;;;;;;5134658;27;19998;-72
2023/08/15 02:56:18;;;;;;;;;;;23.10;99.90;;;;;;5133379;27;20266;-73
2023/08/15 02:58:43;;;;;;;;;;;23.00;99.90;;;;;;5133278;27;19967;-72
2023/08/15 03:01:10;;;;;;;;;;;23.10;99.90;;;;;;5133027;27;20320;-72
2023/08/15 03:03:36;;;;;;;;;;;23.10;99.90;;;;;;5134674;27;20263;-73
2023/08/15 03:06:02;;;;;;;;;;;23.20;99.90;;;;;;5133052;27;19911;-72
2023/08/15 03:08:33;;;;;;;;;;;23.20;99.90;;;;;;5134438;27;19915;-72
2023/08/15 03:10:59;;;;;;;;;;;23.20;99.90;;;;;;5134860;27;20339;-72
2023/08/15 03:13:25;;;;;;;;;;;23.30;99.90;;;;;;5134370;27;19956;-73
2023/08/15 03:15:52;;;;;;;;;;;23.20;99.90;;;;;;5134213;27;19976;-72
2023/08/15 03:18:19;;;;;;;;;;;23.20;99.90;;;;;;5134563;27;19903;-74
2023/08/15 03:20:54;;;;;;;;;;;23.20;99.90;;;;;;5133037;27;19946;-72
2023/08/15 03:23:20;;;;;;;;;;;23.10;99.90;;;;;;5134391;27;20259;-72
2023/08/15 03:25:53;;;;;;;;;;;23.10;99.90;;;;;;5134075;27;19911;-73
2023/08/15 03:28:18;;;;;;;;;;;23.20;99.90;;;;;;5134683;27;19904;-72
2023/08/15 03:30:44;;;;;;;;;;;23.20;99.90;;;;;;5134161;27;20271;-72
2023/08/15 03:33:10;;;;;;;;;;;23.20;99.90;;;;;;5134654;27;19911;-72
2023/08/15 03:35:36;;;;;;;;;;;23.20;99.90;;;;;;5133990;27;20363;-73
2023/08/15 03:38:01;;;;;;;;;;;23.30;99.90;;;;;;5133781;27;20303;-73
2023/08/15 03:40:27;;;;;;;;;;;23.30;99.90;;;;;;5134422;27;19914;-72
2023/08/15 03:42:53;;;;;;;;;;;23.30;99.90;;;;;;5133949;27;19930;-72
2023/08/15 03:45:19;;;;;;;;;;;23.30;99.90;;;;;;5133527;27;20390;-72
2023/08/15 03:47:45;;;;;;;;;;;23.30;99.90;;;;;;5133931;27;19967;-72
2023/08/15 03:50:10;;;;;;;;;;;23.30;99.90;;;;;;5134354;28;20415;-72
2023/08/15 03:52:36;;;;;;;;;;;23.30;99.90;;;;;;5134131;27;19949;-72
2023/08/15 03:55:02;;;;;;;;;;;23.30;99.90;;;;;;5140259;27;19950;-72
2023/08/15 03:57:28;;;;;;;;;;;23.30;99.90;;;;;;5140907;27;20013;-73
2023/08/15 03:59:54;;;;;;;;;;;23.30;99.90;;;;;;5140781;27;19929;-72
2023/08/15 04:02:19;;;;;;;;;;;23.30;99.90;;;;;;5139077;27;19903;-72
2023/08/15 04:04:45;;;;;;;;;;;23.30;99.90;;;;;;5140445;27;19916;-72
2023/08/15 04:07:14;;;;;;;;;;;23.30;99.90;;;;;;5139278;27;20012;-72
2023/08/15 04:09:40;;;;;;;;;;;23.20;99.90;;;;;;5139203;27;19903;-73
2023/08/15 04:12:07;;;;;;;;;;;23.10;99.90;;;;;;5140789;27;19904;-72
2023/08/15 04:14:33;;;;;;;;;;;23.10;99.90;;;;;;5140495;27;19998;-72
2023/08/15 04:16:58;;;;;;;;;;;23.10;99.90;;;;;;5140301;27;19935;-72
2023/08/15 04:19:25;;;;;;;;;;;23.10;99.90;;;;;;5140935;27;19904;-71
2023/08/15 04:21:51;;;;;;;;;;;23.00;99.90;;;;;;5140667;27;19904;-72
2023/08/15 04:24:19;;;;;;;;;;;23.00;99.90;;;;;;5156303;27;20263;-72
2023/08/15 04:26:45;;;;;;;;;;;23.00;99.90;;;;;;5140431;27;19919;-72
2023/08/15 04:29:11;;;;;;;;;;;23.00;99.90;;;;;;5138991;27;19904;-73
2023/08/15 04:31:36;;;;;;;;;;;23.00;99.90;;;;;;5140341;27;19903;-71
2023/08/15 04:34:02;;;;;;;;;;;23.10;99.90;;;;;;5140641;27;20338;-72
2023/08/15 04:36:28;;;;;;;;;;;23.10;99.90;;;;;;5140351;27;19911;-73
2023/08/15 04:38:54;;;;;;;;;;;23.10;99.90;;;;;;5140058;27;20356;-72
2023/08/15 04:41:20;;;;;;;;;;;23.10;99.90;;;;;;5140633;27;19903;-72
2023/08/15 04:43:45;;;;;;;;;;;23.10;99.90;;;;;;5140501;27;19949;-72
2023/08/15 04:46:11;;;;;;;;;;;23.10;99.90;;;;;;5140501;27;19911;-72
2023/08/15 04:48:37;;;;;;;;;;;23.10;99.90;;;;;;5140457;27;19903;-72
2023/08/15 04:51:03;;;;;;;;;;;23.10;99.90;;;;;;5140208;27;19930;-73
2023/08/15 04:53:29;;;;;;;;;;;23.20;99.90;;;;;;5140167;27;20360;-71
2023/08/15 04:55:55;;;;;;;;;;;23.30;99.90;;;;;;5140102;27;19904;-71
2023/08/15 04:58:21;;;;;;;;;;;23.30;99.90;;;;;;5140445;27;20338;-70
2023/08/15 05:00:47;;;;;;;;;;;23.40;99.90;;;;;;5139883;27;19904;-72
2023/08/15 05:03:13;;;;;;;;;;;23.30;99.90;;;;;;5140577;27;19904;-72
2023/08/15 05:05:39;;;;;;;;;;;23.40;99.90;;;;;;5137978;27;20373;-72
2023/08/15 05:08:06;;;;;;;;;;;23.40;99.90;;;;;;5137247;27;19904;-72
2023/08/15 05:10:32;;;;;;;;;;;23.50;99.90;;;;;;5135429;27;19904;-72
2023/08/15 05:12:59;;;;;;;;;;;23.40;99.90;;;;;;5137171;27;20244;-73
2023/08/15 05:15:25;;;;;;;;;;;23.40;99.90;;;;;;5136438;27;19907;-72
2023/08/15 05:17:52;;;;;;;;;;;23.40;99.90;;;;;;5135265;27;20418;-73
2023/08/15 05:20:17;;;;;;;;;;;23.30;99.90;;;;;;5136546;27;19910;-73
2023/08/15 05:22:44;;;;;;;;;;;23.90;99.90;;;;;;5136494;27;19907;-72
2023/08/15 05:25:10;;;;;;;;;;;24.90;99.90;;;;;;5135005;27;19932;-73
2023/08/15 05:27:36;;;;;;;;;;;25.90;99.90;;;;;;5136399;27;19910;-73
2023/08/15 05:30:02;;;;;;;;;;;27.00;99.90;;;;;;5135066;27;20343;-74
2023/08/15 05:32:28;;;;;;;;;;;28.00;99.90;;;;;;5136571;27;20262;-73
2023/08/15 05:34:55;;;;;;;;;;;29.00;99.90;;;;;;5136645;27;20351;-73
2023/08/15 05:37:20;;;;;;;;;;;30.80;99.90;;;;;;5136332;27;19903;-73
2023/08/15 05:39:46;;;;;;;;;;;31.60;99.90;;;;;;5136064;27;19922;-73
2023/08/15 05:42:17;;;;;;;;;;;33.00;99.90;;;;;;5136700;27;19998;-73
2023/08/15 05:44:44;;;;;;;;;;;33.80;99.90;;;;;;5135925;27;20350;-73
2023/08/15 05:47:10;;;;;;;;;;;33.80;99.90;;;;;;5136018;27;20379;-73
2023/08/15 05:49:36;;;;;;;;;;;33.80;99.90;;;;;;5136082;27;20335;-73
2023/08/15 05:52:02;;;;;;;;;;;33.90;99.90;;;;;;5136663;27;19989;-73
2023/08/15 05:54:28;;;;;;;;;;;33.80;99.90;;;;;;5137416;27;19926;-73
2023/08/15 05:56:55;;;;;;;;;;;33.60;99.90;;;;;;5135802;27;20358;-73
2023/08/15 05:59:21;;;;;;;;;;;34.00;99.90;;;;;;5135783;27;19903;-71
2023/08/15 06:01:47;;;;;;;;;;;33.90;99.90;;;;;;5135520;27;20272;-72
2023/08/15 06:04:13;;;;;;;;;;;33.90;99.90;;;;;;5135763;27;19917;-72
2023/08/15 06:06:38;;;;;;;;;;;34.00;99.90;;;;;;5136002;27;19912;-71
2023/08/15 06:09:04;;;;;;;;;;;34.30;99.90;;;;;;5135622;27;19922;-72
2023/08/15 06:11:31;;;;;;;;;;;34.70;99.90;;;;;;5134102;27;20326;-73
2023/08/15 06:13:56;;;;;;;;;;;34.30;99.90;;;;;;5135927;27;20201;-72
2023/08/15 06:16:22;;;;;;;;;;;34.70;99.90;;;;;;5134843;27;19928;-73
2023/08/15 06:18:48;;;;;;;;;;;35.40;99.90;;;;;;5134069;27;19903;-72
2023/08/15 06:21:17;;;;;;;;;;;37.10;99.90;;;;;;5135363;27;20275;-72
2023/08/15 06:23:42;;;;;;;;;;;37.80;99.50;;;;;;5135330;27;20255;-72
2023/08/15 06:26:09;;;;;;;;;;;38.70;98.20;;;;;;5133769;27;19934;-72
2023/08/15 06:28:35;;;;;;;;;;;38.10;98.20;;;;;;5135232;27;20351;-72
2023/08/15 06:31:01;;;;;;;;;;;38.00;98.00;;;;;;5135506;27;19910;-72
2023/08/15 06:33:27;;;;;;;;;;;37.60;98.60;;;;;;5135351;27;19903;-72
2023/08/15 06:35:52;;;;;;;;;;;38.60;97.30;;;;;;5135072;27;19903;-72
2023/08/15 06:38:18;;;;;;;;;;;37.60;97.30;;;;;;5134757;27;20002;-73
2023/08/15 06:40:45;;;;;;;;;;;37.90;97.40;;;;;;5135051;27;19937;-72
2023/08/15 06:43:10;;;;;;;;;;;39.20;96.80;;;;;;5133565;27;19949;-72
2023/08/15 06:45:36;;;;;;;;;;;39.00;96.00;;;;;;5133285;27;19946;-72
2023/08/15 06:48:05;;;;;;;;;;;39.20;95.10;;;;;;5134742;27;20317;-71
2023/08/15 06:50:34;;;;;;;;;;;39.20;95.20;;;;;;5133170;27;20347;-73
2023/08/15 06:52:59;;;;;;;;;;;39.00;95.00;;;;;;5133180;27;19997;-72
2023/08/15 06:55:26;;;;;;;;;;;39.40;94.90;;;;;;5135225;27;19953;-72
2023/08/15 06:57:52;;;;;;;;;;;39.70;94.50;;;;;;5134591;27;19911;-72
2023/08/15 07:00:19;;;;;;;;;;;39.60;94.20;;;;;;5134510;27;19903;-72
2023/08/15 07:02:45;;;;;;;;;;;39.30;94.20;;;;;;5134373;27;19926;-73
2023/08/15 07:05:11;;;;;;;;;;;39.50;94.20;;;;;;5134432;27;20373;-73
2023/08/15 07:07:39;;;;;;;;;;;39.80;93.50;;;;;;5134813;27;19910;-72
2023/08/15 07:10:06;;;;;;;;;;;39.70;93.50;;;;;;5132988;27;19911;-73
2023/08/15 07:12:33;;;;;;;;;;;39.80;93.70;;;;;;5134319;27;19903;-73
2023/08/15 07:15:00;;;;;;;;;;;40.20;93.20;;;;;;5134327;27;19949;-73
2023/08/15 07:17:26;;;;;;;;;;;39.20;93.40;;;;;;5134184;27;19998;-72
2023/08/15 07:19:52;;;;;;;;;;;38.70;93.90;;;;;;5135153;27;19946;-72
2023/08/15 07:22:17;;;;;;;;;;;38.70;94.10;;;;;;5134466;27;19926;-72
2023/08/15 07:24:43;;;;;;;;;;;39.40;93.60;;;;;;5134630;27;19903;-72
2023/08/15 07:27:09;;;;;;;;;;;39.40;93.30;;;;;;5134073;27;20348;-72
2023/08/15 07:29:35;;;;;;;;;;;37.60;93.90;;;;;;5133218;27;19904;-71
2023/08/15 07:32:01;;;;;;;;;;;37.20;94.80;;;;;;5133965;27;20371;-72
2023/08/15 07:34:27;;;;;;;;;;;37.00;94.80;;;;;;5134167;27;20254;-72
2023/08/15 07:36:52;;;;;;;;;;;36.10;95.60;;;;;;5132549;27;19965;-72
2023/08/15 07:39:18;;;;;;;;;;;35.60;96.30;;;;;;5133734;27;19915;-72
2023/08/15 07:41:44;;;;;;;;;;;35.10;96.90;;;;;;5134405;27;19907;-72
2023/08/15 07:44:10;;;;;;;;;;;35.10;97.20;;;;;;5133875;27;19941;-72
2023/08/15 07:46:36;;;;;;;;;;;35.30;97.60;;;;;;5133995;27;19999;-71
2023/08/15 07:49:02;;;;;;;;;;;35.30;97.70;;;;;;5133925;27;19903;-72
2023/08/15 07:51:28;;;;;;;;;;;35.50;97.70;;;;;;5132571;27;19911;-72
2023/08/15 07:53:54;;;;;;;;;;;35.20;97.90;;;;;;5133823;28;20061;-72
2023/08/15 07:56:20;;;;;;;;;;;34.90;98.20;;;;;;5133824;27;19907;-72
2023/08/15 07:58:46;;;;;;;;;;;34.60;98.40;;;;;;5132398;28;19903;-71
2023/08/15 08:01:12;;;;;;;;;;;34.50;98.90;;;;;;5133834;27;20335;-72
2023/08/15 08:03:39;;;;;;;;;;;34.20;98.90;;;;;;5132241;28;19910;-72
2023/08/15 08:06:05;;;;;;;;;;;34.50;99.10;;;;;;5133747;27;19938;-72
2023/08/15 08:08:31;;;;;;;;;;;34.60;98.70;;;;;;5133560;27;20332;-72
2023/08/15 08:10:57;;;;;;;;;;;34.90;98.50;;;;;;5132321;28;20323;-72
2023/08/15 08:13:23;;;;;;;;;;;34.10;98.90;;;;;;5134206;27;19903;-72
2023/08/15 08:15:48;;;;;;;;;;;33.80;99.30;;;;;;5133500;27;19903;-73
2023/08/15 08:18:14;;;;;;;;;;;33.60;99.90;;;;;;5134107;28;19915;-72
2023/08/15 08:20:40;;;;;;;;;;;33.70;99.90;;;;;;5133929;28;19903;-72
2023/08/15 08:23:06;;;;;;;;;;;33.50;99.90;;;;;;5133612;27;19926;-72
2023/08/15 08:25:32;;;;;;;;;;;33.40;99.90;;;;;;5133725;27;19917;-72
2023/08/15 08:27:58;;;;;;;;;;;33.70;99.90;;;;;;5132061;28;20001;-72
2023/08/15 08:30:24;;;;;;;;;;;34.00;99.90;;;;;;5133750;27;19910;-72
2023/08/15 08:32:52;;;;;;;;;;;33.60;99.90;;;;;;5133397;27;19903;-72
2023/08/15 08:35:18;;;;;;;;;;;33.60;99.90;;;;;;5133906;27;19907;-72
2023/08/15 08:37:45;;;;;;;;;;;33.80;99.90;;;;;;5133386;27;19907;-72
2023/08/15 08:40:12;;;;;;;;;;;33.90;99.90;;;;;;5135322;27;19923;-72
2023/08/15 08:42:40;;;;;;;;;;;33.60;99.90;;;;;;5137253;27;19910;-72
2023/08/15 08:45:08;;;;;;;;;;;33.50;99.30;;;;;;5137403;27;19907;-72
2023/08/15 08:47:34;;;;;;;;;;;33.40;99.30;;;;;;5137473;27;20375;-72
2023/08/15 08:50:00;;;;;;;;;;;33.70;98.60;;;;;;5137604;27;20262;-72
2023/08/15 08:52:29;;;;;;;;;;;33.90;97.80;;;;;;5137104;27;19903;-73
2023/08/15 08:54:55;;;;;;;;;;;33.90;96.80;;;;;;5137550;27;19903;-72
2023/08/15 08:57:22;;;;;;;;;;;34.20;95.70;;;;;;5135683;27;19910;-72
2023/08/15 08:59:47;;;;;;;;;;;34.00;95.10;;;;;;5136935;27;19994;-73
2023/08/15 09:02:16;;;;;;;;;;;33.60;95.00;;;;;;5136705;27;19953;-73
2023/08/15 09:04:42;;;;;;;;;;;33.30;94.40;;;;;;5136595;27;19986;-73
2023/08/15 09:07:08;;;;;;;;;;;33.10;94.60;;;;;;5136850;27;20365;-73
2023/08/15 09:09:33;;;;;;;;;;;33.20;94.60;;;;;;5136680;27;20450;-73
2023/08/15 09:11:59;;;;;;;;;;;33.20;95.60;;;;;;5137143;27;19922;-72
2023/08/15 09:14:25;;;;;;;;;;;33.10;95.70;;;;;;5136937;27;19907;-73
2023/08/15 09:16:51;;;;;;;;;;;33.20;95.80;;;;;;5136576;27;19903;-72
2023/08/15 09:19:17;;;;;;;;;;;32.90;95.80;;;;;;5136636;27;19908;-72
2023/08/15 09:21:43;;;;;;;;;;;33.10;95.30;;;;;;5136993;27;19904;-73
2023/08/15 09:24:09;;;;;;;;;;;33.20;94.90;;;;;;5136481;27;19910;-73
2023/08/15 09:26:35;;;;;;;;;;;33.20;95.00;;;;;;5136425;27;19915;-72
2023/08/15 09:29:02;;;;;;;;;;;33.00;95.30;;;;;;5135009;27;19903;-72
2023/08/15 09:31:28;;;;;;;;;;;33.00;95.50;;;;;;5136384;27;19903;-72
2023/08/15 09:33:54;;;;;;;;;;;33.10;95.30;;;;;;5134982;27;19909;-72
2023/08/15 09:36:22;;;;;;;;;;;33.00;95.70;;;;;;5136591;27;19947;-72
2023/08/15 09:38:50;;;;;;;;;;;33.20;95.70;;;;;;5136003;27;19916;-72
2023/08/15 09:41:15;;;;;;;;;;;33.20;95.70;;;;;;5136158;27;19911;-72
2023/08/15 09:43:49;;;;;;;;;;;33.10;95.10;;;;;;5136400;27;19903;-72
2023/08/15 09:46:16;;;;;;;;;;;32.90;95.20;;;;;;5134451;27;19915;-72
2023/08/15 09:48:42;;;;;;;;;;;32.90;94.70;;;;;;5136051;27;19948;-72
2023/08/15 09:51:10;;;;;;;;;;;32.70;96.40;;;;;;5135167;27;20256;-73
2023/08/15 09:53:38;;;;;;;;;;;32.70;96.50;;;;;;5135807;27;19907;-72
2023/08/15 09:56:04;;;;;;;;;;;32.70;96.70;;;;;;5135926;27;20001;-74
2023/08/15 09:58:31;;;;;;;;;;;32.40;97.10;;;;;;5136414;27;19943;-73
2023/08/15 10:00:57;;;;;;;;;;;32.10;97.30;;;;;;5135772;27;19904;-72
2023/08/15 10:03:32;;;;;;;;;;;32.10;97.50;;;;;;5135726;27;19986;-73
2023/08/15 10:05:58;;;;;;;;;;;32.00;97.80;;;;;;5135622;27;19911;-74
2023/08/15 10:08:24;;;;;;;;;;;32.10;98.40;;;;;;5134272;27;20009;-73
2023/08/15 10:10:51;;;;;;;;;;;32.30;98.60;;;;;;5134282;27;20346;-73
2023/08/15 10:13:19;;;;;;;;;;;32.30;97.70;;;;;;5135917;27;19904;-73
2023/08/15 10:15:45;;;;;;;;;;;32.30;97.10;;;;;;5136053;27;19915;-73
2023/08/15 10:18:11;;;;;;;;;;;32.00;97.90;;;;;;5135562;27;19948;-73
2023/08/15 10:20:37;;;;;;;;;;;32.10;97.90;;;;;;5135913;27;20324;-73
2023/08/15 10:23:07;;;;;;;;;;;31.90;98.20;;;;;;5135308;27;19903;-73
2023/08/15 10:25:37;;;;;;;;;;;31.90;98.70;;;;;;5135269;27;19937;-73
2023/08/15 10:28:05;;;;;;;;;;;31.90;98.40;;;;;;5135815;27;19997;-74
2023/08/15 10:30:36;;;;;;;;;;;31.90;98.40;;;;;;5135496;27;19907;-72
2023/08/15 10:33:08;;;;;;;;;;;31.80;98.00;;;;;;5135134;27;20358;-73
2023/08/15 10:35:34;;;;;;;;;;;31.80;98.20;;;;;;5135191;27;19904;-73
2023/08/15 10:38:12;;;;;;;;;;;31.80;98.00;;;;;;5134810;27;20331;-73
2023/08/15 10:40:38;;;;;;;;;;;32.00;97.50;;;;;;5134806;27;19968;-72
2023/08/15 10:43:10;;;;;;;;;;;32.10;98.00;;;;;;5135200;27;19904;-73
2023/08/15 10:45:39;;;;;;;;;;;32.10;97.80;;;;;;5133513;27;19907;-73
2023/08/15 10:48:05;;;;;;;;;;;32.20;97.80;;;;;;5134881;27;19908;-73
2023/08/15 10:50:30;;;;;;;;;;;32.20;97.40;;;;;;5133475;27;19968;-73
2023/08/15 10:52:57;;;;;;;;;;;32.30;97.10;;;;;;5133428;27;19904;-73
2023/08/15 10:55:26;;;;;;;;;;;32.30;96.50;;;;;;5135262;27;19915;-71
2023/08/15 10:57:52;;;;;;;;;;;32.50;97.40;;;;;;5133282;27;19904;-71
2023/08/15 11:00:18;;;;;;;;;;;32.60;97.30;;;;;;5134968;27;20304;-72
2023/08/15 11:02:44;;;;;;;;;;;32.70;98.20;;;;;;5134386;27;20271;-72
2023/08/15 11:05:09;;;;;;;;;;;32.60;99.10;;;;;;5133120;27;20351;-73
2023/08/15 11:07:36;;;;;;;;;;;32.50;99.70;;;;;;5134771;27;19911;-71
2023/08/15 11:10:02;;;;;;;;;;;32.50;99.40;;;;;;5134562;27;20404;-73
2023/08/15 11:12:28;;;;;;;;;;;32.50;98.70;;;;;;5133021;27;19903;-72
2023/08/15 11:14:53;;;;;;;;;;;32.70;97.70;;;;;;5134375;27;19903;-72
2023/08/15 11:17:19;;;;;;;;;;;32.70;97.50;;;;;;5134376;27;20047;-73
2023/08/15 11:19:46;;;;;;;;;;;32.50;98.00;;;;;;5132986;27;20382;-72
2023/08/15 11:22:11;;;;;;;;;;;32.50;98.10;;;;;;5134818;27;19904;-72
2023/08/15 11:24:37;;;;;;;;;;;32.50;98.70;;;;;;5134253;27;19915;-72
2023/08/15 11:27:03;;;;;;;;;;;32.40;98.70;;;;;;5132938;27;20002;-72
2023/08/15 11:29:29;;;;;;;;;;;32.30;99.20;;;;;;5134221;27;19903;-73
2023/08/15 11:31:58;;;;;;;;;;;32.50;99.40;;;;;;5134175;27;19914;-72
2023/08/15 11:34:24;;;;;;;;;;;32.30;99.30;;;;;;5132862;27;19955;-72
2023/08/15 11:36:50;;;;;;;;;;;32.20;99.30;;;;;;5134440;27;20339;-72
2023/08/15 11:39:17;;;;;;;;;;;32.40;99.50;;;;;;5132455;27;20324;-72
2023/08/15 11:41:44;;;;;;;;;;;32.60;99.30;;;;;;5132730;27;19989;-72
2023/08/15 11:44:10;;;;;;;;;;;32.50;99.30;;;;;;5134324;27;19904;-71
2023/08/15 11:46:41;;;;;;;;;;;32.30;99.90;;;;;;5133787;27;20017;-73
2023/08/15 11:49:15;;;;;;;;;;;32.50;99.90;;;;;;5134313;27;20010;-72
2023/08/15 11:51:40;;;;;;;;;;;32.50;99.90;;;;;;5133893;27;20014;-72
2023/08/15 11:54:06;;;;;;;;;;;32.70;99.90;;;;;;5133929;28;19934;-71
2023/08/15 11:56:51;;;;;;;;;;;32.70;99.90;;;;;;5132466;28;20430;-71
2023/08/15 11:59:18;;;;;;;;;;;32.50;99.90;;;;;;5133817;27;20002;-72
2023/08/15 12:01:44;;;;;;;;;;;32.50;99.90;;;;;;5133686;27;20006;-72
2023/08/15 12:04:13;;;;;;;;;;;32.60;99.90;;;;;;5133718;27;20347;-72
2023/08/15 12:06:40;;;;;;;;;;;32.50;99.90;;;;;;5133654;27;19964;-72
2023/08/15 12:09:06;;;;;;;;;;;32.40;99.90;;;;;;5133738;27;20002;-72
2023/08/15 12:11:35;;;;;;;;;;;32.40;99.90;;;;;;5134261;27;19925;-72
2023/08/15 12:14:04;;;;;;;;;;;32.40;99.90;;;;;;5133638;27;20002;-72
2023/08/15 12:16:30;;;;;;;;;;;32.50;99.90;;;;;;5137649;27;19957;-72
2023/08/15 12:18:56;;;;;;;;;;;32.50;99.90;;;;;;5137846;27;19974;-72
2023/08/15 12:21:22;;;;;;;;;;;32.40;99.90;;;;;;5138345;27;19915;-73
2023/08/15 12:23:48;;;;;;;;;;;32.40;99.90;;;;;;5137973;27;19904;-72
2023/08/15 12:26:14;;;;;;;;;;;32.40;99.90;;;;;;5138422;27;19934;-73
2023/08/15 12:28:40;;;;;;;;;;;32.50;99.90;;;;;;5137620;27;20359;-72
2023/08/15 12:31:06;;;;;;;;;;;32.50;99.90;;;;;;5137912;27;19910;-72
2023/08/15 12:33:35;;;;;;;;;;;32.70;99.90;;;;;;5138033;27;19911;-71
2023/08/15 12:36:01;;;;;;;;;;;32.70;99.90;;;;;;5137799;27;19914;-73
2023/08/15 12:38:27;;;;;;;;;;;32.80;99.90;;;;;;5137647;27;19916;-73
2023/08/15 12:40:53;;;;;;;;;;;32.90;99.90;;;;;;5136090;27;19911;-72
2023/08/15 12:43:19;;;;;;;;;;;32.80;99.90;;;;;;5137339;27;19980;-71
2023/08/15 12:45:45;;;;;;;;;;;32.70;99.10;;;;;;5137280;27;19916;-74
2023/08/15 12:48:11;;;;;;;;;;;32.70;99.80;;;;;;5137117;27;19972;-73
2023/08/15 12:50:38;;;;;;;;;;;32.50;98.60;;;;;;5137319;27;20297;-72
2023/08/15 12:53:04;;;;;;;;;;;32.60;98.80;;;;;;5136944;27;19904;-72
2023/08/15 12:55:30;;;;;;;;;;;32.60;99.90;;;;;;5137161;27;19910;-72
2023/08/15 12:57:56;;;;;;;;;;;32.80;99.80;;;;;;5135756;27;19959;-72
2023/08/15 13:00:21;;;;;;;;;;;32.80;99.90;;;;;;5137099;27;19951;-75
2023/08/15 13:02:47;;;;;;;;;;;32.80;99.90;;;;;;5136822;27;19903;-72
2023/08/15 13:05:13;;;;;;;;;;;32.60;99.70;;;;;;5136831;27;20504;-73
2023/08/15 13:07:39;;;;;;;;;;;32.60;99.90;;;;;;5137023;27;20392;-73
2023/08/15 13:10:05;;;;;;;;;;;32.80;99.80;;;;;;5136889;27;19960;-72
2023/08/15 13:12:31;;;;;;;;;;;32.60;99.40;;;;;;5137106;27;19918;-73
2023/08/15 13:14:57;;;;;;;;;;;32.70;99.30;;;;;;5136794;27;19903;-72
2023/08/15 13:17:23;;;;;;;;;;;32.80;99.70;;;;;;5136631;27;19907;-73
2023/08/15 13:19:49;;;;;;;;;;;32.70;99.90;;;;;;5136726;27;19904;-73
2023/08/15 13:22:15;;;;;;;;;;;32.60;99.90;;;;;;5136556;27;19907;-72
2023/08/15 13:24:41;;;;;;;;;;;32.60;99.90;;;;;;5137134;27;19956;-72
2023/08/15 13:27:07;;;;;;;;;;;32.60;99.90;;;;;;5135087;27;20406;-73
2023/08/15 13:29:33;;;;;;;;;;;32.50;99.90;;;;;;5136507;27;19968;-72
2023/08/15 13:31:58;;;;;;;;;;;32.50;99.90;;;;;;5136284;27;19910;-72
2023/08/15 13:34:25;;;;;;;;;;;32.40;98.30;;;;;;5136763;27;19958;-73
2023/08/15 13:36:50;;;;;;;;;;;32.30;99.10;;;;;;5136585;27;19978;-73
2023/08/15 13:39:17;;;;;;;;;;;32.40;98.90;;;;;;5136233;27;20268;-72
2023/08/15 13:41:43;;;;;;;;;;;32.10;99.40;;;;;;5136308;27;19907;-72
2023/08/15 13:44:09;;;;;;;;;;;32.10;99.90;;;;;;5136672;27;20047;-72
2023/08/15 13:46:35;;;;;;;;;;;32.20;99.90;;;;;;5136034;27;19911;-72
2023/08/15 13:49:04;;;;;;;;;;;32.50;99.90;;;;;;5134675;27;19926;-71
2023/08/15 13:51:30;;;;;;;;;;;32.40;99.90;;;;;;5134757;27;19911;-72
2023/08/15 13:53:56;;;;;;;;;;;32.30;99.90;;;;;;5136489;27;19911;-72
2023/08/15 13:56:22;;;;;;;;;;;32.40;99.90;;;;;;5135992;27;19903;-72
2023/08/15 13:58:48;;;;;;;;;;;32.30;99.90;;;;;;5136167;27;19904;-72
2023/08/15 14:01:14;;;;;;;;;;;32.30;99.90;;;;;;5135699;27;19903;-73
2023/08/15 14:03:40;;;;;;;;;;;32.10;99.90;;;;;;5136230;27;19926;-72
2023/08/15 14:06:07;;;;;;;;;;;32.10;99.90;;;;;;5135967;27;19922;-73
2023/08/15 14:08:33;;;;;;;;;;;32.00;99.90;;;;;;5135672;27;19903;-72
2023/08/15 14:10:59;;;;;;;;;;;32.00;99.90;;;;;;5136325;27;19947;-73
2023/08/15 14:13:25;;;;;;;;;;;32.10;99.90;;;;;;5135942;27;20309;-72